createdAt,value
2022-09-11T00:00:37.638Z,8.30
2022-09-11T00:03:31.489Z,7.50
2022-09-11T00:06:29.279Z,7.70
2022-09-11T00:09:20.555Z,7.23
2022-09-11T00:12:12.550Z,8.27
2022-09-11T00:15:04.116Z,8.23
2022-09-11T00:17:56.845Z,11.30
2022-09-11T00:20:50.823Z,8.17
2022-09-11T00:23:42.058Z,9.97
2022-09-11T00:26:33.226Z,9.60
2022-09-11T00:29:24.318Z,9.30
2022-09-11T00:32:15.682Z,10.53
2022-09-11T00:35:07.076Z,8.87
2022-09-11T00:37:59.497Z,9.90
2022-09-11T00:40:51.890Z,9.70
2022-09-11T00:43:53.882Z,10.47
2022-09-11T00:46:46.292Z,8.93
2022-09-11T00:49:40.374Z,8.30
2022-09-11T00:52:34.329Z,8.73
2022-09-11T00:55:28.620Z,8.63
2022-09-11T00:58:21.365Z,9.60
2022-09-11T01:01:14.685Z,14.03
2022-09-11T01:04:07.003Z,8.67
2022-09-11T01:06:58.871Z,9.00
2022-09-11T01:09:51.249Z,9.77
2022-09-11T01:12:48.773Z,9.13
2022-09-11T01:15:43.078Z,8.50
2022-09-11T01:18:38.748Z,9.37
2022-09-11T01:21:41.269Z,9.20
2022-09-11T01:24:47.243Z,8.73
2022-09-11T01:27:50.730Z,8.43
2022-09-11T01:30:42.742Z,8.53
2022-09-11T01:33:38.026Z,9.07
2022-09-11T01:36:31.322Z,8.93
2022-09-11T01:39:24.641Z,9.17
2022-09-11T01:42:17.736Z,9.10
2022-09-11T01:45:12.005Z,7.97
2022-09-11T01:48:03.937Z,8.00
2022-09-11T01:50:57.042Z,9.17
2022-09-11T01:53:50.317Z,8.20
2022-09-11T01:56:44.831Z,8.23
2022-09-11T01:59:37.958Z,9.47
2022-09-11T02:02:34.161Z,7.47
2022-09-11T02:05:27.800Z,6.73
2022-09-11T02:08:20.704Z,7.03
2022-09-11T02:11:13.188Z,8.10
2022-09-11T02:14:07.173Z,8.40
2022-09-11T02:17:03.453Z,6.07
2022-09-11T02:19:57.555Z,7.13
2022-09-11T02:22:49.113Z,6.17
2022-09-11T02:25:40.253Z,6.90
2022-09-11T02:28:31.538Z,6.87
2022-09-11T02:31:23.354Z,10.77
2022-09-11T02:34:15.244Z,7.03
2022-09-11T02:37:14.584Z,7.03
2022-09-11T02:40:15.521Z,7.00
2022-09-11T02:43:13.335Z,7.37
2022-09-11T02:46:16.207Z,7.47
2022-09-11T02:49:09.744Z,8.10
2022-09-11T02:52:04.100Z,11.10
2022-09-11T02:54:57.465Z,10.73
2022-09-11T02:57:51.573Z,12.40
2022-09-11T03:00:42.817Z,10.20
2022-09-11T03:03:38.182Z,11.77
2022-09-11T03:06:29.871Z,12.90
2022-09-11T03:09:21.580Z,9.53
2022-09-11T03:12:14.317Z,12.30
2022-09-11T03:15:06.518Z,11.63
2022-09-11T03:17:57.910Z,14.63
2022-09-11T03:20:49.138Z,13.17
2022-09-11T03:23:40.832Z,16.33
2022-09-11T03:26:33.087Z,14.17
2022-09-11T03:29:25.560Z,16.53
2022-09-11T03:32:17.181Z,13.77
2022-09-11T03:35:08.507Z,13.23
2022-09-11T03:37:59.405Z,15.30
2022-09-11T03:40:50.621Z,15.57
2022-09-11T03:43:41.988Z,15.37
2022-09-11T03:46:35.157Z,15.90
2022-09-11T03:49:25.998Z,17.60
2022-09-11T03:52:17.429Z,15.47
2022-09-11T03:55:08.779Z,14.60
2022-09-11T03:58:00.057Z,15.60
2022-09-11T04:00:51.001Z,18.47
2022-09-11T04:03:44.053Z,15.23
2022-09-11T04:06:35.195Z,14.40
2022-09-11T04:09:26.823Z,13.53
2022-09-11T04:12:19.934Z,15.33
2022-09-11T04:15:10.903Z,15.27
2022-09-11T04:18:05.486Z,15.93
2022-09-11T04:20:58.281Z,18.87
2022-09-11T04:23:52.146Z,19.83
2022-09-11T04:26:43.058Z,20.23
2022-09-11T04:29:34.378Z,20.20
2022-09-11T04:32:25.684Z,20.33
2022-09-11T04:35:16.890Z,21.13
2022-09-11T04:38:09.544Z,22.77
2022-09-11T04:41:01.372Z,19.57
2022-09-11T04:43:54.944Z,23.40
2022-09-11T04:46:46.223Z,20.83
2022-09-11T04:49:37.282Z,19.97
2022-09-11T04:52:28.892Z,21.30
2022-09-11T04:55:21.510Z,20.50
2022-09-11T04:58:16.396Z,23.53
2022-09-11T05:01:08.119Z,24.90
2022-09-11T05:04:00.585Z,21.90
2022-09-11T05:06:51.481Z,23.03
2022-09-11T05:09:42.658Z,20.67
2022-09-11T05:12:35.297Z,18.67
2022-09-11T05:15:26.524Z,18.60
2022-09-11T05:18:17.778Z,23.50
2022-09-11T05:21:10.839Z,22.20
2022-09-11T05:24:02.883Z,22.47
2022-09-11T05:26:54.184Z,22.50
2022-09-11T05:29:46.726Z,22.30
2022-09-11T05:32:37.935Z,25.10
2022-09-11T05:35:32.361Z,24.30
2022-09-11T05:38:23.708Z,25.10
2022-09-11T05:41:15.648Z,26.27
2022-09-11T05:44:07.196Z,24.50
2022-09-11T05:46:59.653Z,26.60
2022-09-11T05:49:50.825Z,25.60
2022-09-11T05:52:42.000Z,31.23
2022-09-11T05:55:34.929Z,30.43
2022-09-11T05:58:26.379Z,27.97
2022-09-11T06:01:18.337Z,30.17
2022-09-11T06:04:12.265Z,28.50
2022-09-11T06:07:03.465Z,29.43
2022-09-11T06:09:54.956Z,26.07
2022-09-11T06:12:45.966Z,24.90
2022-09-11T06:15:46.474Z,29.53
2022-09-11T06:18:38.424Z,25.93
2022-09-11T06:21:31.310Z,27.80
2022-09-11T06:24:22.525Z,25.30
2022-09-11T06:27:13.872Z,25.07
2022-09-11T06:30:05.495Z,24.10
2022-09-11T06:32:57.656Z,24.60
2022-09-11T06:35:57.355Z,26.97
2022-09-11T06:38:53.291Z,25.57
2022-09-11T06:41:44.555Z,24.67
2022-09-11T06:44:35.634Z,25.40
2022-09-11T06:47:27.082Z,22.07
2022-09-11T06:50:18.156Z,21.73
2022-09-11T06:53:09.822Z,21.53
2022-09-11T06:56:02.653Z,19.67
2022-09-11T06:58:53.778Z,22.97
2022-09-11T07:01:44.981Z,22.33
2022-09-11T07:04:35.959Z,18.90
2022-09-11T07:07:27.326Z,20.93
2022-09-11T07:10:18.515Z,18.87
2022-09-11T07:13:10.937Z,20.20
2022-09-11T07:16:02.485Z,20.80
2022-09-11T07:18:54.128Z,18.60
2022-09-11T07:21:45.215Z,19.83
2022-09-11T07:24:36.417Z,18.57
2022-09-11T07:27:27.629Z,19.90
2022-09-11T07:30:20.427Z,21.30
2022-09-11T07:33:11.688Z,16.20
2022-09-11T07:36:07.151Z,18.80
2022-09-11T07:38:58.726Z,16.43
2022-09-11T07:41:49.962Z,16.83
2022-09-11T07:44:40.837Z,17.63
2022-09-11T07:47:33.862Z,19.77
2022-09-11T07:50:25.274Z,16.77
2022-09-11T07:53:16.639Z,16.83
2022-09-11T07:56:09.058Z,17.90
2022-09-11T07:59:01.564Z,17.73
2022-09-11T08:01:52.994Z,17.60
2022-09-11T08:04:45.137Z,16.70
2022-09-11T08:07:36.297Z,16.87
2022-09-11T08:10:28.306Z,16.87
2022-09-11T08:13:19.915Z,16.53
2022-09-11T08:16:10.794Z,16.10
2022-09-11T08:19:02.195Z,16.03
2022-09-11T08:21:57.328Z,14.00
2022-09-11T08:24:48.682Z,18.03
2022-09-11T08:27:39.761Z,16.83
2022-09-11T08:30:30.910Z,15.63
2022-09-11T08:33:22.031Z,16.83
2022-09-11T08:36:14.733Z,15.13
2022-09-11T08:39:09.021Z,13.67
2022-09-11T08:42:02.489Z,15.57
2022-09-11T08:44:54.802Z,14.33
2022-09-11T08:47:48.857Z,15.83
2022-09-11T08:50:41.437Z,16.63
2022-09-11T08:53:33.691Z,15.10
2022-09-11T08:56:29.829Z,13.07
2022-09-11T08:59:24.113Z,13.83
2022-09-11T09:02:22.932Z,13.93
2022-09-11T09:05:19.001Z,15.07
2022-09-11T09:08:19.001Z,13.50
2022-09-11T09:11:15.474Z,12.27
2022-09-11T09:14:13.204Z,14.87
2022-09-11T09:17:06.246Z,12.83
2022-09-11T09:20:00.537Z,12.87
2022-09-11T09:22:53.926Z,11.80
2022-09-11T09:25:45.241Z,12.13
2022-09-11T09:28:39.366Z,15.20
2022-09-11T09:31:33.782Z,15.40
2022-09-11T09:34:27.635Z,13.50
2022-09-11T09:37:20.587Z,14.80
2022-09-11T09:40:15.922Z,12.43
2022-09-11T09:43:18.108Z,10.40
2022-09-11T09:46:15.370Z,12.20
2022-09-11T09:49:08.903Z,11.70
2022-09-11T09:52:04.573Z,11.20
2022-09-11T09:54:57.464Z,9.97
2022-09-11T09:57:48.311Z,12.07
2022-09-11T10:00:41.430Z,13.50
2022-09-11T10:03:33.680Z,11.67
2022-09-11T10:06:26.419Z,12.07
2022-09-11T10:09:22.256Z,14.70
2022-09-11T10:12:16.019Z,11.70
2022-09-11T10:15:07.577Z,13.03
2022-09-11T10:18:21.824Z,12.40
2022-09-11T10:21:19.724Z,11.40
2022-09-11T10:24:23.545Z,11.47
2022-09-11T10:27:21.104Z,12.17
2022-09-11T10:30:28.205Z,11.23
2022-09-11T10:33:23.721Z,10.13
2022-09-11T10:36:22.584Z,11.23
2022-09-11T10:39:17.487Z,10.20
2022-09-11T10:42:16.757Z,10.67
2022-09-11T10:45:10.466Z,11.80
2022-09-11T10:48:14.838Z,8.73
2022-09-11T10:51:07.244Z,11.20
2022-09-11T10:54:03.348Z,11.20
2022-09-11T10:57:00.275Z,8.70
2022-09-11T10:59:59.463Z,9.43
2022-09-11T11:02:52.639Z,8.27
2022-09-11T11:05:47.966Z,9.03
2022-09-11T11:08:55.159Z,10.10
2022-09-11T11:11:52.603Z,10.17
2022-09-11T11:14:55.116Z,9.30
2022-09-11T11:17:51.929Z,9.00
2022-09-11T11:20:46.896Z,8.83
2022-09-11T11:23:52.116Z,8.30
2022-09-11T11:26:49.574Z,8.43
2022-09-11T11:29:47.589Z,8.10
2022-09-11T11:32:58.357Z,10.90
2022-09-11T11:35:53.516Z,7.20
2022-09-11T11:38:47.570Z,8.20
2022-09-11T11:41:44.501Z,7.37
2022-09-11T11:44:40.917Z,6.57
2022-09-11T11:47:33.338Z,8.80
2022-09-11T11:50:31.539Z,7.47
2022-09-11T11:53:25.464Z,7.17
2022-09-11T11:56:22.735Z,6.37
2022-09-11T11:59:15.599Z,6.07
2022-09-11T12:02:13.026Z,6.20
2022-09-11T12:05:06.295Z,5.57
2022-09-11T12:07:59.053Z,5.90
2022-09-11T12:10:56.374Z,7.53
2022-09-11T12:13:48.640Z,7.77
2022-09-11T12:16:39.875Z,7.23
2022-09-11T12:19:31.048Z,7.53
2022-09-11T12:22:34.141Z,7.80
2022-09-11T12:25:43.664Z,8.73
2022-09-11T12:28:37.942Z,7.37
2022-09-11T12:31:49.113Z,10.50
2022-09-11T12:34:55.171Z,7.83
2022-09-11T12:37:51.030Z,7.10
2022-09-11T12:40:50.777Z,6.77
2022-09-11T12:43:50.606Z,5.93
2022-09-11T12:47:00.897Z,6.70
2022-09-11T12:49:56.390Z,6.93
2022-09-11T12:52:51.767Z,10.23
2022-09-11T12:55:50.626Z,7.30
2022-09-11T12:58:44.150Z,5.67
2022-09-11T13:01:37.710Z,4.70
2022-09-11T13:04:31.135Z,5.17
2022-09-11T13:07:26.666Z,5.13
2022-09-11T13:10:25.957Z,5.93
2022-09-11T13:13:35.966Z,6.17
2022-09-11T13:16:28.549Z,6.53
2022-09-11T13:19:21.345Z,6.20
2022-09-11T13:22:23.592Z,5.57
2022-09-11T13:25:16.142Z,5.67
2022-09-11T13:28:07.815Z,5.57
2022-09-11T13:31:02.148Z,5.77
2022-09-11T13:33:53.778Z,6.07
2022-09-11T13:36:47.193Z,4.80
2022-09-11T13:39:41.037Z,5.23
2022-09-11T13:42:32.664Z,5.63
2022-09-11T13:45:24.920Z,5.17
2022-09-11T13:48:21.460Z,5.37
2022-09-11T13:51:13.319Z,6.60
2022-09-11T13:54:09.187Z,4.57
2022-09-11T13:57:12.722Z,4.30
2022-09-11T14:00:04.351Z,4.83
2022-09-11T14:02:56.127Z,7.13
2022-09-11T14:05:51.833Z,4.87
2022-09-11T14:08:46.461Z,3.93
2022-09-11T14:11:39.084Z,4.53
2022-09-11T14:14:30.410Z,3.50
2022-09-11T14:17:21.867Z,4.17
2022-09-11T14:20:14.629Z,4.20
2022-09-11T14:23:06.731Z,3.40
2022-09-11T14:26:09.026Z,3.97
2022-09-11T14:29:02.894Z,3.83
2022-09-11T14:31:54.331Z,3.57
2022-09-11T14:34:45.613Z,3.40
2022-09-11T14:37:40.539Z,2.93
2022-09-11T14:40:31.716Z,3.70
2022-09-11T14:43:25.838Z,4.50
2022-09-11T14:46:18.083Z,4.27
2022-09-11T14:49:09.589Z,3.87
2022-09-11T14:52:01.779Z,4.57
2022-09-11T14:54:53.065Z,3.97
2022-09-11T14:57:46.584Z,3.77
2022-09-11T15:00:37.980Z,3.97
2022-09-11T15:03:31.027Z,5.07
2022-09-11T15:06:22.356Z,3.70
2022-09-11T15:09:13.633Z,3.93
2022-09-11T15:12:04.848Z,3.97
2022-09-11T15:14:58.488Z,3.70
2022-09-11T15:17:50.237Z,4.30
2022-09-11T15:20:42.685Z,4.83
2022-09-11T15:23:34.195Z,4.40
2022-09-11T15:26:45.577Z,4.37
2022-09-11T15:29:36.656Z,5.23
2022-09-11T15:32:27.931Z,5.10
2022-09-11T15:35:19.313Z,4.63
2022-09-11T15:38:11.790Z,4.27
2022-09-11T15:41:02.978Z,4.20
2022-09-11T15:43:54.096Z,4.63
2022-09-11T15:46:45.750Z,3.57
2022-09-11T15:49:40.523Z,3.60
2022-09-11T15:52:33.267Z,4.10
2022-09-11T15:55:30.131Z,3.97
2022-09-11T15:58:21.284Z,4.83
2022-09-11T16:01:17.687Z,3.70
2022-09-11T16:04:10.220Z,3.60
2022-09-11T16:07:00.948Z,4.00
2022-09-11T16:09:52.669Z,3.27
2022-09-11T16:12:46.407Z,3.17
2022-09-11T16:15:37.317Z,2.97
2022-09-11T16:18:28.392Z,3.17
2022-09-11T16:21:20.330Z,3.30
2022-09-11T16:24:14.761Z,3.40
2022-09-11T16:27:07.043Z,4.60
2022-09-11T16:30:32.270Z,3.20
2022-09-11T16:33:11.780Z,2.57
2022-09-11T16:36:05.205Z,3.47
2022-09-11T16:38:56.486Z,3.03
2022-09-11T16:41:47.761Z,4.80
2022-09-11T16:44:39.003Z,3.57
2022-09-11T16:47:32.430Z,5.57
2022-09-11T16:50:24.368Z,4.13
2022-09-11T16:53:15.758Z,4.23
2022-09-11T16:56:07.763Z,4.27
2022-09-11T16:58:59.005Z,4.00
2022-09-11T17:01:52.469Z,3.10
2022-09-11T17:04:45.028Z,3.03
2022-09-11T17:07:36.653Z,3.40
2022-09-11T17:10:28.376Z,4.30
2022-09-11T17:13:19.658Z,3.60
2022-09-11T17:16:16.178Z,3.43
2022-09-11T17:19:09.659Z,4.07
2022-09-11T17:22:03.943Z,5.70
2022-09-11T17:24:55.356Z,4.17
2022-09-11T17:27:46.718Z,4.40
2022-09-11T17:30:39.556Z,6.00
2022-09-11T17:33:32.279Z,4.43
2022-09-11T17:36:23.903Z,4.50
2022-09-11T17:39:16.378Z,5.20
2022-09-11T17:42:12.393Z,5.83
2022-09-11T17:45:04.443Z,5.97
2022-09-11T17:47:56.998Z,5.03
2022-09-11T17:50:48.791Z,5.80
2022-09-11T17:53:41.573Z,5.43
2022-09-11T17:56:34.156Z,7.30
2022-09-11T17:59:25.716Z,7.77
2022-09-11T18:02:18.249Z,6.73
2022-09-11T18:05:09.771Z,6.70
2022-09-11T18:08:02.239Z,8.47
2022-09-11T18:10:54.116Z,5.50
2022-09-11T18:13:46.829Z,5.73
2022-09-11T18:16:38.032Z,6.73
2022-09-11T18:19:29.184Z,6.70
2022-09-11T18:22:22.184Z,6.87
2022-09-11T18:25:13.186Z,7.10
2022-09-11T18:28:04.359Z,7.23
2022-09-11T18:31:03.069Z,6.57
2022-09-11T18:33:55.272Z,8.33
2022-09-11T18:36:46.609Z,7.47
2022-09-11T18:39:38.444Z,8.90
2022-09-11T18:42:29.628Z,7.37
2022-09-11T18:45:20.817Z,9.10
2022-09-11T18:48:13.404Z,8.17
2022-09-11T18:51:06.334Z,8.20
2022-09-11T18:53:57.106Z,9.80
2022-09-11T18:56:49.193Z,7.97
2022-09-11T18:59:40.411Z,8.70
2022-09-11T19:02:31.610Z,10.93
2022-09-11T19:05:25.036Z,9.00
2022-09-11T19:08:16.047Z,10.07
2022-09-11T19:11:07.927Z,9.90
2022-09-11T19:14:03.108Z,11.53
2022-09-11T19:16:54.447Z,9.90
2022-09-11T19:19:46.474Z,9.33
2022-09-11T19:22:38.715Z,9.40
2022-09-11T19:25:30.182Z,10.80
2022-09-11T19:28:21.551Z,10.80
2022-09-11T19:31:14.364Z,11.43
2022-09-11T19:34:05.883Z,11.00
2022-09-11T19:36:57.616Z,9.27
2022-09-11T19:39:51.976Z,9.90
2022-09-11T19:42:43.279Z,11.17
2022-09-11T19:45:34.394Z,10.87
2022-09-11T19:48:26.152Z,11.90
2022-09-11T19:51:19.565Z,10.77
2022-09-11T19:54:11.775Z,9.07
2022-09-11T19:57:04.810Z,8.70
2022-09-11T19:59:56.034Z,10.43
2022-09-11T20:02:47.297Z,9.70
2022-09-11T20:05:40.565Z,9.33
2022-09-11T20:08:31.846Z,9.20
2022-09-11T20:11:25.324Z,9.63
2022-09-11T20:14:18.095Z,10.63
2022-09-11T20:17:10.241Z,8.60
2022-09-11T20:20:01.801Z,8.47
2022-09-11T20:22:54.561Z,10.03
2022-09-11T20:25:45.463Z,9.70
2022-09-11T20:28:36.847Z,9.50
2022-09-11T20:31:30.211Z,9.47
2022-09-11T20:34:22.402Z,9.23
2022-09-11T20:37:13.691Z,8.73
2022-09-11T20:40:06.634Z,10.97
2022-09-11T20:42:58.031Z,10.27
2022-09-11T20:45:50.596Z,8.77
2022-09-11T20:48:42.871Z,8.63
2022-09-11T20:51:34.510Z,10.27
2022-09-11T20:54:25.669Z,9.13
2022-09-11T20:57:17.118Z,8.83
2022-09-11T21:00:10.047Z,7.23
2022-09-11T21:03:01.277Z,6.70
2022-09-11T21:05:54.069Z,5.40
2022-09-11T21:08:45.106Z,5.43
2022-09-11T21:11:37.229Z,5.67
2022-09-11T21:14:28.218Z,6.00
2022-09-11T21:17:19.444Z,5.57
2022-09-11T21:20:13.587Z,4.80
2022-09-11T21:23:06.028Z,4.90
2022-09-11T21:25:58.104Z,4.63
2022-09-11T21:28:49.483Z,5.00
2022-09-11T21:31:40.707Z,4.67
2022-09-11T21:34:31.944Z,5.80
2022-09-11T21:37:23.181Z,4.77
2022-09-11T21:40:15.728Z,5.80
2022-09-11T21:43:06.876Z,4.47
2022-09-11T21:45:58.047Z,4.67
2022-09-11T21:48:49.260Z,4.87
2022-09-11T21:51:40.783Z,6.90
2022-09-11T21:54:32.167Z,5.57
2022-09-11T21:57:28.688Z,5.93
2022-09-11T22:00:19.904Z,5.47
2022-09-11T22:03:11.941Z,5.27
2022-09-11T22:06:06.116Z,6.47
2022-09-11T22:08:57.553Z,5.07
2022-09-11T22:11:48.973Z,5.70
2022-09-11T22:14:44.272Z,5.00
2022-09-11T22:17:35.689Z,4.83
2022-09-11T22:20:27.123Z,4.70
2022-09-11T22:23:20.779Z,4.87
2022-09-11T22:26:13.730Z,5.20
2022-09-11T22:29:04.907Z,4.50
2022-09-11T22:31:57.328Z,5.47
2022-09-11T22:34:48.381Z,6.60
2022-09-11T22:37:39.612Z,4.40
2022-09-11T22:40:30.733Z,4.97
2022-09-11T22:43:21.812Z,4.80
2022-09-11T22:46:12.985Z,4.50
2022-09-11T22:49:05.903Z,10.57
2022-09-11T22:51:56.842Z,4.60
2022-09-11T22:54:48.022Z,4.00
2022-09-11T22:57:39.600Z,4.00
2022-09-11T23:00:30.698Z,4.37
2022-09-11T23:03:22.330Z,6.27
2022-09-11T23:06:32.438Z,4.40
2022-09-11T23:09:23.674Z,3.67
2022-09-11T23:12:14.825Z,4.60
2022-09-11T23:15:06.697Z,4.33
2022-09-11T23:17:57.809Z,4.07
2022-09-11T23:20:52.679Z,4.07
2022-09-11T23:23:49.806Z,3.90
2022-09-11T23:26:44.090Z,3.30
2022-09-11T23:29:35.260Z,3.73
2022-09-11T23:32:26.598Z,3.90
2022-09-11T23:35:18.417Z,3.87
2022-09-11T23:38:10.341Z,5.33
2022-09-11T23:41:02.878Z,6.07
2022-09-11T23:43:54.173Z,4.27
2022-09-11T23:46:45.414Z,4.53
2022-09-11T23:49:36.777Z,3.93
2022-09-11T23:52:27.858Z,3.97
2022-09-11T23:55:19.215Z,4.67
2022-09-11T23:58:11.745Z,4.07
